Time;durP1;ratioP1;P1;durP2;ratioP2;P2;SDS_P1;SDS_P2;PMS_P1;PMS_P2;Temp;Humidity;BMP_temperature;BMP_pressure;BME280_temperature;BME280_humidity;BME280_pressure;Samples;Min_cycle;Max_cycle;Signal;HPM_P1;HPM_P2
2023/01/03 00:00:44;;;;;;;45.45;24.90;;;10.20;84.50;;;;;;5117000;28;20111;-12
2023/01/03 00:03:15;;;;;;;48.83;27.90;;;10.20;84.60;;;;;;5116535;28;20020;-12
2023/01/03 00:05:44;;;;;;;49.03;26.85;;;10.20;84.60;;;;;;5116664;28;20471;-13
2023/01/03 00:08:10;;;;;;;48.60;26.33;;;10.10;84.60;;;;;;5116841;28;20060;-12
2023/01/03 00:10:36;;;;;;;45.75;26.48;;;10.10;84.60;;;;;;5116533;28;20031;-12
2023/01/03 00:13:03;;;;;;;51.90;28.75;;;10.10;84.70;;;;;;5116360;28;20120;-12
2023/01/03 00:15:29;;;;;;;54.15;29.85;;;10.00;84.70;;;;;;5116443;28;20521;-13
2023/01/03 00:17:55;;;;;;;48.17;28.65;;;10.00;84.80;;;;;;5116463;28;20032;-12
2023/01/03 00:20:21;;;;;;;54.28;29.23;;;10.00;84.90;;;;;;5116901;28;20076;-12
2023/01/03 00:22:47;;;;;;;42.67;24.70;;;10.00;84.90;;;;;;5116158;28;20024;-13
2023/01/03 00:25:14;;;;;;;52.92;29.77;;;10.00;85.00;;;;;;5116836;28;20015;-12
2023/01/03 00:27:40;;;;;;;34.58;21.73;;;10.00;85.00;;;;;;5116593;28;20023;-11
2023/01/03 00:30:07;;;;;;;31.77;21.30;;;10.00;85.10;;;;;;5116128;28;20086;-13
2023/01/03 00:32:32;;;;;;;39.35;22.55;;;10.00;85.10;;;;;;5116311;28;20110;-12
2023/01/03 00:34:58;;;;;;;45.67;25.17;;;10.00;85.20;;;;;;5114698;28;20111;-12
2023/01/03 00:37:24;;;;;;;40.65;22.65;;;10.10;85.20;;;;;;5116620;27;20114;-12
2023/01/03 00:39:50;;;;;;;46.05;25.60;;;10.10;85.20;;;;;;5115813;28;20110;-12
2023/01/03 00:42:16;;;;;;;37.83;22.67;;;10.10;85.10;;;;;;5116302;28;20070;-12
2023/01/03 00:44:43;;;;;;;39.22;23.73;;;10.20;85.10;;;;;;5115952;28;20415;-12
2023/01/03 00:47:09;;;;;;;35.95;22.80;;;10.20;85.10;;;;;;5115583;28;20475;-11
2023/01/03 00:49:35;;;;;;;53.35;27.92;;;10.20;85.10;;;;;;5116254;28;20060;-12
2023/01/03 00:52:01;;;;;;;49.53;25.98;;;10.20;85.10;;;;;;5116112;28;20028;-12
2023/01/03 00:54:26;;;;;;;36.95;21.77;;;10.20;85.00;;;;;;5115691;28;20049;-12
2023/01/03 00:56:52;;;;;;;41.45;22.70;;;10.20;84.90;;;;;;5115727;28;20023;-11
2023/01/03 00:59:20;;;;;;;36.58;22.35;;;10.20;85.00;;;;;;5115700;28;20031;-12
2023/01/03 01:01:49;;;;;;;31.42;20.52;;;10.20;85.00;;;;;;5114373;28;20028;-13
2023/01/03 01:04:19;;;;;;;33.65;19.23;;;10.20;85.00;;;;;;5115565;28;20031;-12
2023/01/03 01:06:50;;;;;;;33.33;19.80;;;10.20;84.90;;;;;;5115870;28;20080;-12
2023/01/03 01:09:23;;;;;;;34.33;19.60;;;10.30;84.90;;;;;;5115613;28;20081;-13
2023/01/03 01:11:49;;;;;;;40.75;24.02;;;10.30;84.80;;;;;;5115430;28;20028;-11
2023/01/03 01:14:19;;;;;;;32.97;20.20;;;10.40;84.80;;;;;;5115631;28;20054;-12
2023/01/03 01:16:52;;;;;;;37.83;21.58;;;10.40;84.70;;;;;;5115452;28;20106;-13
2023/01/03 01:19:23;;;;;;;43.85;24.25;;;10.40;84.70;;;;;;5115659;28;20030;-12
2023/01/03 01:21:48;;;;;;;42.90;22.35;;;10.40;84.70;;;;;;5115375;28;20030;-12
2023/01/03 01:24:15;;;;;;;33.83;21.83;;;10.40;84.60;;;;;;5115365;28;20470;-12
2023/01/03 01:26:40;;;;;;;37.67;21.55;;;10.40;84.50;;;;;;5115352;28;20027;-11
2023/01/03 01:29:07;;;;;;;34.70;19.92;;;10.30;84.50;;;;;;5115083;28;20032;-10
2023/01/03 01:31:32;;;;;;;32.58;18.95;;;10.30;84.60;;;;;;5114757;28;20449;-12
2023/01/03 01:33:58;;;;;;;37.05;22.52;;;10.40;84.60;;;;;;5115340;28;20064;-12
2023/01/03 01:36:30;;;;;;;28.67;18.77;;;10.40;84.60;;;;;;5114983;28;20450;-12
2023/01/03 01:39:15;;;;;;;28.50;18.15;;;10.40;84.60;;;;;;5115053;28;20076;-12
2023/01/03 01:44:51;;;;;;;30.40;19.35;;;10.40;84.50;;;;;;5094817;28;20051;-12
2023/01/03 01:47:26;;;;;;;31.02;18.98;;;10.50;84.50;;;;;;5094663;28;20031;-11
2023/01/03 01:50:21;;;;;;;36.00;20.73;;;10.50;84.50;;;;;;5094153;28;20039;-12
2023/01/03 01:53:06;;;;;;;31.00;20.05;;;10.50;84.30;;;;;;5094367;28;20020;-16
2023/01/03 01:55:50;;;;;;;29.02;17.73;;;10.50;84.20;;;;;;5094309;28;20446;-13
2023/01/03 01:58:16;;;;;;;37.28;22.27;;;10.50;84.20;;;;;;5094260;28;20095;-10
2023/01/03 02:00:43;;;;;;;40.25;23.67;;;10.60;83.90;;;;;;5094141;28;20024;-12
2023/01/03 02:03:11;;;;;;;38.50;23.45;;;10.60;83.70;;;;;;5093833;28;20501;-12
2023/01/03 02:05:43;;;;;;;35.42;22.80;;;10.60;83.70;;;;;;5094227;28;20032;-12
2023/01/03 02:08:09;;;;;;;39.38;23.08;;;10.60;83.80;;;;;;5093922;28;20414;-13
2023/01/03 02:10:35;;;;;;;38.58;22.85;;;10.60;83.90;;;;;;5093805;28;20486;-12
2023/01/03 02:13:36;;;;;;;39.03;23.00;;;10.50;83.90;;;;;;5093583;28;20024;-13
2023/01/03 02:16:20;;;;;;;38.08;23.52;;;10.50;83.90;;;;;;5093762;28;20036;-13
2023/01/03 02:19:18;;;;;;;34.70;21.02;;;10.50;84.00;;;;;;5093754;28;20042;-12
2023/01/03 02:22:02;;;;;;;35.28;21.95;;;10.50;84.10;;;;;;5094163;28;20024;-11
2023/01/03 02:24:53;;;;;;;35.30;21.52;;;10.50;84.10;;;;;;5093700;28;20475;-11
2023/01/03 02:27:52;;;;;;;37.20;21.52;;;10.50;84.10;;;;;;5093863;28;20035;-11
2023/01/03 02:30:24;;;;;;;34.10;21.23;;;10.50;84.10;;;;;;5093140;28;20044;-12
2023/01/03 02:33:15;;;;;;;34.70;20.73;;;10.50;84.20;;;;;;5093245;28;20101;-12
2023/01/03 02:36:09;;;;;;;33.92;19.80;;;10.50;84.20;;;;;;5094007;28;20055;-10
2023/01/03 02:39:22;;;;;;;40.08;24.50;;;10.50;84.20;;;;;;5094503;28;20048;-12
2023/01/03 02:45:20;;;;;;;41.63;23.58;;;10.50;84.20;;;;;;5031205;28;20053;-13
2023/01/03 02:47:56;;;;;;;38.38;23.02;;;10.50;84.10;;;;;;5031676;28;20030;-12
2023/01/03 02:50:27;;;;;;;37.88;22.38;;;10.40;84.20;;;;;;5030805;28;20040;-12
2023/01/03 02:52:57;;;;;;;36.85;21.73;;;10.40;84.30;;;;;;5030722;28;20072;-12
2023/01/03 02:55:26;;;;;;;41.83;24.88;;;10.50;84.30;;;;;;5030782;28;20048;-12
2023/01/03 02:58:04;;;;;;;38.97;23.80;;;10.50;84.40;;;;;;5031201;28;20032;-12
2023/01/03 03:00:32;;;;;;;34.15;21.35;;;10.50;84.40;;;;;;5031527;28;20076;-10
2023/01/03 03:03:05;;;;;;;34.30;21.92;;;10.50;84.40;;;;;;5030472;28;20029;-10
2023/01/03 03:05:36;;;;;;;36.55;21.40;;;10.50;84.40;;;;;;5030570;28;20041;-12
2023/01/03 03:08:02;;;;;;;37.22;21.17;;;10.50;84.50;;;;;;5014186;28;20547;-12
2023/01/03 03:13:30;;;;;;;46.17;25.17;;;10.50;84.50;;;;;;5079665;28;20031;-12
2023/01/03 03:15:56;;;;;;;46.70;27.10;;;10.50;84.40;;;;;;5093113;28;20035;-12
2023/01/03 03:18:28;;;;;;;51.30;27.42;;;10.50;84.40;;;;;;5093047;28;20031;-12
2023/01/03 03:26:39;;;;;;;46.83;24.75;;;10.40;84.40;;;;;;5092872;28;20118;-12
2023/01/03 03:29:13;;;;;;;57.80;28.85;;;10.40;84.50;;;;;;5092512;28;20028;-12
2023/01/03 03:31:42;;;;;;;38.15;22.80;;;10.30;84.60;;;;;;5093042;28;20040;-12
2023/01/03 03:34:41;;;;;;;53.33;27.27;;;10.30;84.60;;;;;;5092481;28;20081;-12
2023/01/03 03:37:18;;;;;;;46.00;25.15;;;10.30;84.70;;;;;;5030024;28;20428;-12
2023/01/03 03:45:39;;;;;;;47.95;23.08;;;10.30;84.90;;;;;;5030730;28;20441;-10
2023/01/03 03:48:26;;;;;;;54.97;25.77;;;10.30;84.90;;;;;;5013822;28;20033;-12
2023/01/03 03:51:00;;;;;;;78.80;29.65;;;10.20;85.00;;;;;;5029892;28;20300;-11
2023/01/03 03:53:32;;;;;;;53.10;23.73;;;10.30;85.10;;;;;;5030637;28;20536;-13
2023/01/03 03:56:06;;;;;;;64.32;26.67;;;10.30;85.00;;;;;;5030074;28;20029;-12
2023/01/03 03:58:43;;;;;;;57.88;22.90;;;10.30;85.00;;;;;;5030174;28;20025;-12
2023/01/03 04:01:17;;;;;;;65.53;26.20;;;10.30;85.00;;;;;;5030013;28;20026;-12
2023/01/03 04:03:44;;;;;;;71.13;28.88;;;10.20;85.00;;;;;;5030095;28;20060;-12
2023/01/03 04:06:21;;;;;;;68.00;26.20;;;10.20;85.10;;;;;;5030541;28;20446;-11
2023/01/03 04:08:47;;;;;;;74.85;26.00;;;10.20;85.10;;;;;;5029811;28;20049;-12
2023/01/03 04:11:13;;;;;;;49.85;22.55;;;10.20;85.20;;;;;;5030312;28;20460;-12
2023/01/03 04:13:39;;;;;;;57.75;24.25;;;10.20;85.20;;;;;;5086525;28;20040;-12
2023/01/03 04:16:06;;;;;;;44.65;22.02;;;10.20;85.30;;;;;;5092103;28;20032;-11
2023/01/03 04:18:32;;;;;;;46.90;22.95;;;10.20;85.30;;;;;;5092171;28;20491;-12
2023/01/03 04:20:58;;;;;;;53.03;24.40;;;10.20;85.30;;;;;;5091880;28;20024;-12
2023/01/03 04:23:24;;;;;;;63.08;26.30;;;10.30;85.30;;;;;;5092924;28;20099;-11
2023/01/03 04:25:49;;;;;;;68.28;25.73;;;10.20;85.30;;;;;;5092005;28;20463;-12
2023/01/03 04:28:16;;;;;;;55.17;25.38;;;10.30;85.30;;;;;;5091908;28;20119;-11
2023/01/03 04:30:42;;;;;;;45.28;22.98;;;10.20;85.20;;;;;;5091806;28;20410;-12
2023/01/03 04:33:09;;;;;;;68.82;26.67;;;10.30;85.30;;;;;;5092093;28;20545;-12
2023/01/03 04:35:35;;;;;;;51.55;22.58;;;10.30;85.30;;;;;;5091921;28;20107;-12
2023/01/03 04:38:01;;;;;;;65.43;26.17;;;10.30;85.30;;;;;;5093784;28;20172;-12
2023/01/03 04:40:27;;;;;;;56.25;23.42;;;10.30;85.30;;;;;;5094277;28;20016;-11
2023/01/03 04:45:37;;;;;;;49.75;22.15;;;10.30;85.20;;;;;;5096096;28;20113;-10
2023/01/03 04:48:04;;;;;;;56.28;22.40;;;10.30;85.10;;;;;;5095251;28;20016;-12
2023/01/03 04:50:30;;;;;;;50.00;23.45;;;10.20;85.10;;;;;;5095410;28;20032;-12
2023/01/03 04:52:56;;;;;;;65.22;26.85;;;10.20;85.10;;;;;;5095074;28;20031;-12
2023/01/03 04:55:22;;;;;;;78.95;27.60;;;10.20;85.20;;;;;;5095379;28;20024;-12
2023/01/03 04:57:48;;;;;;;74.82;27.70;;;10.20;85.20;;;;;;5095274;28;20066;-12
2023/01/03 05:00:14;;;;;;;75.90;29.48;;;10.20;85.20;;;;;;5095267;28;20018;-13
2023/01/03 05:02:40;;;;;;;63.10;24.27;;;10.20;85.20;;;;;;5077159;28;20063;-13
2023/01/03 05:05:06;;;;;;;50.38;23.25;;;10.20;85.20;;;;;;5095000;28;20052;-13
2023/01/03 05:07:32;;;;;;;68.05;26.30;;;10.10;85.20;;;;;;5095087;28;20345;-12
2023/01/03 05:09:58;;;;;;;53.60;23.73;;;10.20;85.30;;;;;;5095203;28;20040;-13
2023/01/03 05:12:24;;;;;;;51.33;22.33;;;10.20;85.30;;;;;;5095288;28;20396;-12
2023/01/03 05:14:50;;;;;;;51.55;24.77;;;10.20;85.30;;;;;;5094838;28;20391;-13
2023/01/03 05:17:20;;;;;;;57.85;23.52;;;10.20;85.30;;;;;;5095243;28;20028;-12
2023/01/03 05:28:00;;;;;;;55.40;24.08;;;10.20;85.10;;;;;;5095190;28;20439;-13
2023/01/03 05:30:26;;;;;;;45.42;22.17;;;10.10;85.10;;;;;;5094260;28;20499;-12
2023/01/03 05:32:53;;;;;;;56.63;23.17;;;10.20;85.10;;;;;;5094399;28;20024;-12
2023/01/03 05:35:19;;;;;;;51.60;22.30;;;10.10;85.20;;;;;;5094900;28;20103;-12
2023/01/03 05:37:45;;;;;;;68.20;27.00;;;10.10;85.20;;;;;;5094522;28;20024;-13
2023/01/03 05:40:11;;;;;;;60.97;25.15;;;10.10;85.20;;;;;;5094573;28;20054;-13
2023/01/03 05:42:37;;;;;;;69.88;27.80;;;10.10;85.10;;;;;;5093048;28;20032;-12
2023/01/03 05:45:03;;;;;;;64.13;27.55;;;10.10;85.20;;;;;;5094094;28;20039;-12
2023/01/03 05:47:29;;;;;;;71.28;27.33;;;10.00;85.20;;;;;;5094276;28;20032;-13
2023/01/03 05:49:55;;;;;;;63.17;25.67;;;10.00;85.20;;;;;;5094495;28;20040;-13
2023/01/03 05:52:21;;;;;;;82.22;30.90;;;9.90;85.20;;;;;;5094228;28;20020;-13
2023/01/03 05:54:47;;;;;;;63.13;23.98;;;9.90;85.30;;;;;;5094177;28;20046;-12
2023/01/03 05:57:13;;;;;;;72.25;28.73;;;9.90;85.30;;;;;;5094132;28;20483;-13
2023/01/03 05:59:39;;;;;;;78.28;30.42;;;9.90;85.40;;;;;;5093961;28;20035;-12
2023/01/03 06:02:05;;;;;;;79.53;33.17;;;9.90;85.40;;;;;;5093995;28;20022;-13
2023/01/03 06:04:30;;;;;;;72.97;30.63;;;9.90;85.50;;;;;;5093946;28;20024;-12
2023/01/03 06:06:56;;;;;;;79.38;30.35;;;9.90;85.50;;;;;;5094052;28;20046;-13
2023/01/03 06:09:22;;;;;;;61.15;26.60;;;9.80;85.50;;;;;;5092651;28;20031;-12
2023/01/03 06:11:48;;;;;;;70.32;28.55;;;9.80;85.60;;;;;;5093660;28;20028;-13
2023/01/03 06:14:13;;;;;;;55.38;25.67;;;9.80;85.70;;;;;;5094053;28;20024;-13
2023/01/03 06:19:24;;;;;;;68.25;27.05;;;9.80;85.80;;;;;;5094489;28;20047;-12
2023/01/03 06:21:49;;;;;;;57.80;24.98;;;9.80;85.90;;;;;;5093987;28;20012;-12
2023/01/03 06:24:15;;;;;;;73.03;30.38;;;9.80;85.90;;;;;;5093702;28;20059;-13
2023/01/03 06:26:41;;;;;;;60.50;25.67;;;9.80;85.80;;;;;;5093650;28;20392;-13
2023/01/03 06:29:07;;;;;;;66.47;28.05;;;9.80;85.80;;;;;;5093423;28;20034;-12
2023/01/03 06:31:33;;;;;;;74.35;30.80;;;9.80;85.80;;;;;;5093170;28;20522;-12
2023/01/03 06:33:58;;;;;;;86.05;33.72;;;9.80;85.70;;;;;;5093916;28;20023;-13
2023/01/03 06:36:25;;;;;;;78.88;31.75;;;9.70;85.70;;;;;;5093961;28;20024;-12
2023/01/03 06:38:51;;;;;;;72.40;29.20;;;9.70;85.80;;;;;;5091831;28;20059;-12
2023/01/03 06:41:18;;;;;;;75.88;32.38;;;9.70;85.80;;;;;;5093114;28;20506;-14
2023/01/03 06:43:43;;;;;;;74.18;29.83;;;9.70;85.80;;;;;;5093238;28;20024;-13
2023/01/03 06:54:31;;;;;;;58.13;25.15;;;9.70;86.00;;;;;;5093406;28;20410;-12
2023/01/03 06:56:57;;;;;;;51.00;24.98;;;9.60;86.00;;;;;;5092917;28;20031;-12
2023/01/03 06:59:23;;;;;;;52.88;25.00;;;9.70;86.10;;;;;;5093067;28;20028;-12
2023/01/03 07:01:51;;;;;;;53.38;24.80;;;9.70;86.10;;;;;;5092788;28;20024;-12
2023/01/03 07:04:17;;;;;;;47.00;22.00;;;9.70;86.10;;;;;;5093042;28;20484;-11
2023/01/03 07:06:44;;;;;;;56.83;26.55;;;9.70;86.20;;;;;;5092893;28;20035;-11
2023/01/03 07:09:10;;;;;;;48.47;24.33;;;9.80;86.20;;;;;;5092933;28;20035;-10
2023/01/03 07:11:37;;;;;;;54.80;24.48;;;9.80;86.10;;;;;;5093192;28;20122;-12
2023/01/03 07:14:05;;;;;;;48.65;23.65;;;9.80;86.10;;;;;;5093038;28;20034;-11
2023/01/03 07:16:34;;;;;;;41.40;21.65;;;9.90;86.10;;;;;;5092808;28;20056;-12
2023/01/03 07:19:01;;;;;;;42.03;22.52;;;9.90;86.10;;;;;;5092754;28;20020;-11
2023/01/03 07:21:28;;;;;;;42.80;21.48;;;9.90;86.00;;;;;;5092913;28;20387;-13
2023/01/03 07:23:56;;;;;;;54.88;27.48;;;9.90;86.00;;;;;;5092667;28;20103;-12
2023/01/03 07:26:23;;;;;;;63.33;26.98;;;10.00;86.00;;;;;;5092675;28;20028;-12
2023/01/03 07:28:50;;;;;;;51.70;25.02;;;10.10;85.90;;;;;;5092363;28;20020;-12
2023/01/03 07:31:17;;;;;;;40.42;20.95;;;10.10;85.80;;;;;;5092306;28;20079;-12
2023/01/03 07:33:44;;;;;;;68.25;29.35;;;10.10;85.80;;;;;;5092792;28;20028;-12
2023/01/03 07:36:12;;;;;;;65.28;28.30;;;10.10;85.80;;;;;;5092849;28;20422;-13
2023/01/03 07:38:40;;;;;;;52.38;24.55;;;10.10;85.60;;;;;;5092548;28;20035;-12
2023/01/03 07:41:09;;;;;;;53.45;26.45;;;10.10;85.70;;;;;;5092411;28;20100;-12
2023/01/03 07:43:36;;;;;;;47.63;22.80;;;10.10;85.70;;;;;;5092782;28;20043;-12
2023/01/03 07:46:13;;;;;;;77.75;33.53;;;10.20;85.70;;;;;;5092735;28;20044;-11
2023/01/03 07:48:39;;;;;;;74.22;33.63;;;10.20;85.60;;;;;;5092438;28;20081;-12
2023/01/03 07:51:07;;;;;;;73.00;33.45;;;10.20;85.60;;;;;;5092192;28;20518;-12
2023/01/03 07:53:34;;;;;;;74.47;33.28;;;10.20;85.50;;;;;;5092273;28;20028;-12
2023/01/03 07:56:02;;;;;;;102.18;57.13;;;10.20;85.50;;;;;;5090992;28;20111;-12
2023/01/03 07:58:28;;;;;;;74.80;37.60;;;10.20;85.50;;;;;;5092528;28;20067;-13
2023/01/03 08:00:54;;;;;;;76.72;35.90;;;10.30;85.50;;;;;;5092006;28;20055;-12
2023/01/03 08:03:20;;;;;;;55.20;29.77;;;10.30;85.50;;;;;;5093346;28;20024;-13
2023/01/03 08:05:46;;;;;;;64.70;33.47;;;10.30;85.50;;;;;;5092566;28;20472;-12
2023/01/03 08:08:12;;;;;;;65.03;32.00;;;10.40;85.60;;;;;;5092977;28;20345;-12
2023/01/03 08:13:23;;;;;;;57.45;27.40;;;10.50;85.30;;;;;;5095047;28;20088;-12
2023/01/03 08:15:53;;;;;;;69.50;32.45;;;10.60;85.20;;;;;;5096319;28;20039;-12
2023/01/03 08:18:22;;;;;;;66.43;32.72;;;10.70;85.10;;;;;;5096081;28;20032;-12
2023/01/03 08:20:48;;;;;;;69.93;34.65;;;10.70;84.90;;;;;;5095896;28;20052;-13
2023/01/03 08:23:14;;;;;;;75.07;34.90;;;10.70;84.70;;;;;;5096019;28;20470;-12
2023/01/03 08:25:40;;;;;;;63.47;32.22;;;10.80;84.70;;;;;;5096124;28;20040;-11
2023/01/03 08:28:08;;;;;;;64.55;32.97;;;10.80;84.60;;;;;;5096127;28;20397;-12
2023/01/03 08:30:40;;;;;;;70.57;35.10;;;10.80;84.60;;;;;;5095530;28;20123;-12
2023/01/03 08:33:11;;;;;;;71.90;34.38;;;10.80;84.50;;;;;;5095567;28;20046;-12
2023/01/03 08:35:39;;;;;;;70.70;32.83;;;10.80;84.60;;;;;;5096012;28;20016;-12
2023/01/03 08:38:10;;;;;;;70.05;33.28;;;10.90;84.60;;;;;;5096030;28;20085;-13
2023/01/03 08:40:39;;;;;;;54.25;28.67;;;10.90;84.60;;;;;;5095642;28;20038;-13
2023/01/03 08:43:06;;;;;;;61.22;29.80;;;10.90;84.70;;;;;;5095387;28;20060;-12
2023/01/03 08:45:33;;;;;;;67.00;34.47;;;10.90;84.70;;;;;;5095526;28;20148;-14
2023/01/03 08:48:01;;;;;;;54.95;28.88;;;11.00;84.70;;;;;;5095571;28;20032;-13
2023/01/03 08:50:29;;;;;;;47.08;25.92;;;11.10;84.70;;;;;;5095696;28;20031;-13
2023/01/03 08:52:57;;;;;;;48.17;25.70;;;11.10;84.70;;;;;;5095243;28;20024;-12
2023/01/03 08:55:22;;;;;;;46.65;25.67;;;11.20;84.60;;;;;;5095263;28;20111;-12
2023/01/03 08:57:48;;;;;;;51.85;26.33;;;11.30;84.60;;;;;;5095605;28;20107;-13
2023/01/03 09:00:14;;;;;;;57.15;29.90;;;11.30;84.50;;;;;;5095412;28;20019;-13
2023/01/03 09:02:40;;;;;;;52.38;27.15;;;11.30;84.30;;;;;;5095306;28;20417;-13
2023/01/03 09:05:07;;;;;;;48.30;24.30;;;11.40;84.20;;;;;;5094990;28;20170;-12
2023/01/03 09:07:33;;;;;;;54.95;28.73;;;11.40;84.10;;;;;;5095044;28;20110;-12
2023/01/03 09:09:59;;;;;;;70.28;32.38;;;11.40;84.10;;;;;;5094880;28;20032;-14
2023/01/03 09:12:27;;;;;;;60.35;30.08;;;11.40;83.90;;;;;;5094964;28;20028;-13
2023/01/03 09:14:53;;;;;;;56.70;29.65;;;11.40;83.80;;;;;;5094747;28;20364;-14
2023/01/03 09:17:19;;;;;;;71.57;33.97;;;11.40;83.80;;;;;;5094936;28;20024;-12
2023/01/03 09:19:45;;;;;;;59.72;30.33;;;11.40;83.90;;;;;;5095257;28;20400;-12
2023/01/03 09:22:11;;;;;;;69.22;32.90;;;11.40;83.90;;;;;;5095133;28;20024;-14
2023/01/03 09:24:37;;;;;;;66.80;33.22;;;11.50;84.00;;;;;;5094428;28;20136;-14
2023/01/03 09:27:03;;;;;;;62.85;33.05;;;11.50;84.00;;;;;;5094519;28;20028;-13
2023/01/03 09:29:28;;;;;;;55.33;27.58;;;11.50;83.80;;;;;;5094882;28;20021;-13
2023/01/03 09:31:54;;;;;;;55.65;28.27;;;11.60;83.90;;;;;;5094633;28;20090;-13
2023/01/03 09:34:20;;;;;;;52.05;28.15;;;11.60;83.90;;;;;;5094929;28;20028;-15
2023/01/03 09:36:47;;;;;;;68.88;31.35;;;11.70;83.90;;;;;;5094655;28;20102;-15
2023/01/03 09:39:13;;;;;;;64.45;32.70;;;11.80;83.80;;;;;;5093274;28;20050;-15
2023/01/03 09:41:39;;;;;;;56.50;29.02;;;11.90;83.70;;;;;;5094711;28;20058;-14
2023/01/03 09:44:08;;;;;;;63.80;32.20;;;11.90;83.50;;;;;;5094394;28;20028;-13
2023/01/03 09:46:34;;;;;;;64.72;32.05;;;11.90;83.40;;;;;;5094600;28;20486;-13
2023/01/03 09:49:01;;;;;;;61.20;31.60;;;12.00;83.30;;;;;;5094077;28;20092;-14
2023/01/03 10:04:00;;;;;;;63.13;31.92;;;12.50;82.70;;;;;;5094690;28;20061;-13
2023/01/03 10:06:44;;;;;;;;;;;12.60;82.40;;;;;;5065709;28;20059;-12
2023/01/03 10:09:28;;;;;;;54.13;28.70;;;12.70;82.20;;;;;;5093705;28;20363;-13
2023/01/03 10:12:20;;;;;;;54.15;26.27;;;12.80;82.30;;;;;;5093698;28;20483;-14
2023/01/03 10:15:04;;;;;;;47.40;26.70;;;12.90;82.00;;;;;;5093921;28;20043;-16
2023/01/03 10:17:56;;;;;;;54.20;29.63;;;13.00;81.90;;;;;;5092521;28;20080;-14
2023/01/03 10:20:48;;;;;;;43.75;24.20;;;13.10;81.80;;;;;;5093410;28;20035;-13
2023/01/03 10:23:14;;;;;;;53.10;27.13;;;13.30;81.00;;;;;;5094392;28;20060;-13
2023/01/03 10:25:45;;;;;;;57.17;30.90;;;13.40;81.30;;;;;;5093541;28;20459;-12
2023/01/03 10:28:26;;;;;;;51.17;27.73;;;13.50;81.20;;;;;;5093565;28;20036;-14
2023/01/03 10:31:20;;;;;;;50.42;27.58;;;13.70;80.90;;;;;;5093103;28;20062;-15
2023/01/03 10:33:47;;;;;;;51.53;28.40;;;13.90;80.70;;;;;;5093591;28;20060;-13
2023/01/03 10:36:15;;;;;;;44.47;25.08;;;14.20;80.40;;;;;;5092974;28;20028;-13
2023/01/03 10:38:43;;;;;;;52.17;28.60;;;14.40;79.60;;;;;;5093335;28;20020;-13
2023/01/03 10:41:33;;;;;;;51.78;30.35;;;14.60;78.60;;;;;;5093149;28;20020;-14
2023/01/03 10:44:02;;;;;;;51.47;29.45;;;14.90;77.60;;;;;;5093262;28;20544;-14
2023/01/03 10:46:29;;;;;;;56.03;30.17;;;15.00;77.50;;;;;;5093358;28;20030;-14
2023/01/03 10:49:11;;;;;;;50.53;29.25;;;15.20;76.90;;;;;;5092993;28;20028;-13
2023/01/03 10:51:46;;;;;;;42.63;24.52;;;15.20;76.50;;;;;;5093638;28;20079;-12
2023/01/03 10:54:53;;;;;;;49.15;27.08;;;15.10;76.60;;;;;;5093140;28;20047;-13
2023/01/03 10:57:47;;;;;;;47.30;26.85;;;15.10;76.70;;;;;;5031187;28;20036;-12
2023/01/03 11:00:35;;;;;;;46.65;27.60;;;15.30;76.50;;;;;;5030916;28;20486;-13
2023/01/03 11:03:18;;;;;;;47.80;28.20;;;15.40;75.60;;;;;;5030621;28;20034;-13
2023/01/03 11:06:09;;;;;;;46.33;26.80;;;15.60;74.90;;;;;;5030795;28;20040;-13
2023/01/03 11:08:45;;;;;;;41.85;26.02;;;15.80;74.50;;;;;;5027514;28;20026;-13
2023/01/03 11:11:26;;;;;;;46.97;27.17;;;15.90;74.20;;;;;;5030396;28;20068;-14
2023/01/03 11:14:09;;;;;;;52.08;28.25;;;15.90;74.20;;;;;;5030586;28;20072;-14
2023/01/03 11:16:35;;;;;;;40.17;24.90;;;15.90;73.90;;;;;;5030652;28;20029;-15
2023/01/03 11:19:04;;;;;;;36.60;22.65;;;16.00;73.70;;;;;;5030414;28;20033;-13
2023/01/03 11:21:30;;;;;;;37.35;23.67;;;15.90;74.00;;;;;;5030503;28;20036;-13
2023/01/03 11:24:14;;;;;;;38.25;23.15;;;15.90;73.10;;;;;;5030400;28;20038;-13
2023/01/03 11:26:48;;;;;;;44.13;26.05;;;15.90;74.00;;;;;;5030444;28;20025;-13
2023/01/03 11:29:16;;;;;;;42.30;26.48;;;15.90;73.70;;;;;;5030497;28;20485;-13
2023/01/03 11:32:17;;;;;;;36.88;23.25;;;15.90;73.60;;;;;;5030286;28;20046;-13
2023/01/03 11:35:04;;;;;;;36.25;23.85;;;15.80;73.60;;;;;;5068282;28;20032;-14
2023/01/03 11:37:46;;;;;;;35.30;22.60;;;15.80;73.50;;;;;;5092460;28;20118;-13
2023/01/03 11:40:48;;;;;;;36.55;24.70;;;15.80;73.60;;;;;;5092606;28;20039;-13
2023/01/03 11:43:48;;;;;;;37.53;22.75;;;15.80;72.70;;;;;;5061040;28;20414;-14
2023/01/03 11:46:45;;;;;;;37.05;22.38;;;15.80;73.10;;;;;;5093361;28;20383;-15
2023/01/03 11:49:23;;;;;;;32.40;21.75;;;15.80;73.10;;;;;;5096570;28;20044;-13
2023/01/03 11:51:58;;;;;;;31.92;20.50;;;15.70;73.40;;;;;;5096889;28;20028;-12
2023/01/03 11:54:46;;;;;;;41.42;24.33;;;15.70;73.60;;;;;;5096609;28;20032;-14
2023/01/03 11:57:40;;;;;;;39.92;25.25;;;15.80;73.00;;;;;;5096821;28;20117;-12
2023/01/03 12:00:10;;;;;;;41.00;25.77;;;15.80;71.50;;;;;;5090393;28;20036;-13
2023/01/03 12:02:47;;;;;;;40.10;25.17;;;15.70;71.70;;;;;;5096406;28;20036;-14
2023/01/03 12:05:40;;;;;;;42.67;26.15;;;15.70;71.60;;;;;;5096671;28;20032;-12
2023/01/03 12:08:35;;;;;;;37.47;23.17;;;15.60;71.70;;;;;;5096634;28;20089;-13
2023/01/03 12:11:04;;;;;;;42.17;26.35;;;15.50;72.20;;;;;;5033509;28;20091;-14
2023/01/03 12:13:54;;;;;;;33.97;21.30;;;15.50;72.40;;;;;;5034288;28;20037;-13
2023/01/03 12:16:39;;;;;;;33.78;22.15;;;15.40;72.40;;;;;;5034186;28;20454;-13
2023/01/03 12:19:07;;;;;;;38.15;22.38;;;15.40;72.80;;;;;;5017076;28;20505;-13
2023/01/03 12:21:39;;;;;;;33.85;20.02;;;15.40;72.90;;;;;;5033910;28;20026;-14
2023/01/03 12:24:29;;;;;;;35.10;21.92;;;15.30;72.90;;;;;;5033674;28;20029;-13
2023/01/03 12:27:02;;;;;;;38.53;23.92;;;15.30;72.90;;;;;;5033413;28;20029;-13
2023/01/03 12:29:53;;;;;;;40.28;23.83;;;15.30;72.80;;;;;;5033459;28;20036;-13
2023/01/03 12:32:48;;;;;;;41.33;24.23;;;15.20;72.90;;;;;;5033500;28;20045;-13
2023/01/03 12:35:19;;;;;;;40.35;25.02;;;15.30;72.10;;;;;;5033706;28;20026;-14
2023/01/03 12:37:49;;;;;;;44.72;27.27;;;15.40;71.30;;;;;;5033779;28;20036;-13
2023/01/03 12:40:22;;;;;;;42.42;24.92;;;15.40;71.10;;;;;;5033253;28;20033;-14
2023/01/03 12:43:04;;;;;;;37.53;23.52;;;15.40;71.60;;;;;;5033056;28;20068;-14
2023/01/03 12:45:54;;;;;;;44.45;26.90;;;15.40;71.70;;;;;;5033767;28;20063;-14
2023/01/03 12:48:48;;;;;;;39.38;25.40;;;15.30;71.90;;;;;;5087838;28;20391;-13
2023/01/03 12:51:19;;;;;;;41.75;26.30;;;15.40;72.00;;;;;;5095950;28;20036;-14
2023/01/03 12:53:52;;;;;;;40.05;25.27;;;15.40;72.10;;;;;;5095813;28;20028;-13
2023/01/03 12:56:36;;;;;;;39.60;24.20;;;15.60;72.00;;;;;;5095392;28;20028;-16
2023/01/03 12:59:26;;;;;;;37.45;24.38;;;15.70;71.80;;;;;;5094509;28;20368;-13
2023/01/03 13:02:11;;;;;;;43.00;25.98;;;15.70;71.60;;;;;;5095511;28;20413;-19
2023/01/03 13:04:41;;;;;;;42.80;26.83;;;15.70;71.60;;;;;;5095480;28;20024;-13
2023/01/03 13:07:14;;;;;;;47.33;26.98;;;15.70;71.80;;;;;;5094947;28;20036;-13
2023/01/03 13:09:54;;;;;;;55.17;34.37;;;15.70;71.60;;;;;;5095398;28;20115;-13
2023/01/03 13:12:29;;;;;;;51.67;30.73;;;15.80;71.50;;;;;;5095309;28;20078;-14
2023/01/03 13:14:56;;;;;;;54.90;31.70;;;15.80;71.40;;;;;;5095097;28;20036;-12
2023/01/03 13:17:25;;;;;;;54.70;32.63;;;15.80;71.40;;;;;;5095070;28;20086;-13
2023/01/03 13:19:54;;;;;;;58.75;35.20;;;15.80;71.10;;;;;;5095062;28;20047;-14
2023/01/03 13:22:20;;;;;;;48.80;30.05;;;15.70;71.30;;;;;;5095394;28;20043;-13
2023/01/03 13:24:50;;;;;;;54.05;33.92;;;15.80;71.40;;;;;;5094840;28;20379;-13
2023/01/03 13:27:17;;;;;;;54.75;33.88;;;15.80;71.30;;;;;;5094897;28;20032;-13
2023/01/03 13:29:48;;;;;;;50.72;32.65;;;15.80;71.30;;;;;;5094482;28;20510;-12
2023/01/03 13:32:15;;;;;;;47.05;29.77;;;15.70;71.30;;;;;;5094817;28;20032;-13
2023/01/03 13:34:42;;;;;;;51.25;29.65;;;15.60;71.40;;;;;;5094800;28;20024;-13
2023/01/03 13:37:08;;;;;;;46.75;28.58;;;15.50;71.50;;;;;;5094556;28;20093;-13
2023/01/03 13:39:50;;;;;;;41.55;26.42;;;15.40;71.70;;;;;;5094858;28;20476;-12
2023/01/03 13:42:26;;;;;;;41.05;25.30;;;15.20;72.00;;;;;;5094697;28;20031;-13
2023/01/03 13:45:14;;;;;;;38.22;23.88;;;15.10;72.40;;;;;;5094604;28;20043;-14
2023/01/03 13:47:46;;;;;;;42.20;24.90;;;15.10;72.80;;;;;;5062908;28;20027;-14
2023/01/03 13:50:24;;;;;;;48.03;25.75;;;15.10;72.60;;;;;;5094285;28;20388;-13